createdAt,value
2022-08-17T00:00:43.043Z,18.96
2022-08-17T00:03:24.260Z,19.00
2022-08-17T00:06:03.081Z,19.01
2022-08-17T00:08:39.470Z,18.95
2022-08-17T00:11:12.033Z,18.89
2022-08-17T00:13:47.258Z,18.82
2022-08-17T00:16:56.518Z,19.00
2022-08-17T00:19:24.709Z,18.81
2022-08-17T00:22:32.857Z,18.65
2022-08-17T00:24:44.520Z,18.87
2022-08-17T00:27:12.076Z,18.90
2022-08-17T00:29:39.766Z,18.86
2022-08-17T00:33:14.245Z,18.98
2022-08-17T00:34:55.252Z,18.94
2022-08-17T00:37:23.024Z,18.94
2022-08-17T00:39:50.678Z,18.99
2022-08-17T00:42:19.908Z,18.91
2022-08-17T00:44:48.192Z,18.91
2022-08-17T00:47:15.883Z,18.93
2022-08-17T00:49:43.702Z,18.83
2022-08-17T00:52:21.797Z,18.88
2022-08-17T00:54:54.121Z,18.91
2022-08-17T00:57:31.402Z,19.00
2022-08-17T01:00:08.993Z,18.90
2022-08-17T01:02:43.234Z,18.77
2022-08-17T01:05:21.124Z,18.87
2022-08-17T01:07:51.041Z,18.99
2022-08-17T01:10:59.083Z,18.98
2022-08-17T01:13:12.868Z,18.77
2022-08-17T01:15:51.167Z,18.68
2022-08-17T01:18:19.313Z,18.50
2022-08-17T01:20:55.094Z,18.42
2022-08-17T01:23:25.943Z,18.39
2022-08-17T01:25:57.739Z,18.32
2022-08-17T01:28:52.404Z,18.37
2022-08-17T01:31:19.264Z,18.32
2022-08-17T01:33:47.675Z,18.07
2022-08-17T01:36:15.589Z,18.35
2022-08-17T01:38:43.646Z,18.54
2022-08-17T01:41:16.510Z,18.31
2022-08-17T01:44:02.578Z,18.05
2022-08-17T01:46:36.036Z,18.27
2022-08-17T01:49:10.335Z,18.31
2022-08-17T01:51:39.185Z,18.31
2022-08-17T01:54:15.471Z,18.40
2022-08-17T01:56:49.607Z,18.16
2022-08-17T01:59:19.928Z,18.13
2022-08-17T02:01:49.023Z,18.15
2022-08-17T02:04:17.069Z,17.90
2022-08-17T02:06:53.598Z,17.97
2022-08-17T02:09:29.723Z,17.97
2022-08-17T02:12:05.763Z,17.99
2022-08-17T02:14:48.826Z,17.99
2022-08-17T02:17:16.560Z,18.14
2022-08-17T02:19:44.162Z,17.93
2022-08-17T02:22:12.259Z,17.79
2022-08-17T02:25:00.454Z,17.33
2022-08-17T02:27:28.648Z,17.57
2022-08-17T02:29:56.165Z,17.68
2022-08-17T02:32:27.464Z,17.25
2022-08-17T02:34:58.471Z,17.51
2022-08-17T02:37:30.404Z,17.54
2022-08-17T02:39:59.576Z,17.27
2022-08-17T02:42:33.861Z,17.28
2022-08-17T02:45:05.369Z,17.17
2022-08-17T02:47:33.842Z,17.41
2022-08-17T02:50:01.366Z,17.32
2022-08-17T02:52:43.038Z,17.39
2022-08-17T02:55:32.704Z,17.25
2022-08-17T02:58:01.819Z,17.41
2022-08-17T03:00:41.359Z,17.36
2022-08-17T03:03:13.645Z,17.20
2022-08-17T03:05:41.857Z,17.24
2022-08-17T03:08:13.067Z,17.26
2022-08-17T03:10:42.767Z,17.16
2022-08-17T03:13:13.333Z,17.05
2022-08-17T03:15:45.269Z,17.06
2022-08-17T03:18:19.304Z,16.80
2022-08-17T03:20:55.376Z,17.02
2022-08-17T03:23:25.433Z,17.24
2022-08-17T03:25:54.398Z,17.36
2022-08-17T03:28:23.560Z,17.04
2022-08-17T03:30:52.285Z,17.40
2022-08-17T03:33:20.451Z,17.41
2022-08-17T03:35:48.360Z,17.19
2022-08-17T03:38:18.096Z,16.95
2022-08-17T03:40:59.130Z,16.90
2022-08-17T03:43:31.129Z,16.80
2022-08-17T03:46:33.899Z,16.90
2022-08-17T03:49:27.261Z,16.96
2022-08-17T03:52:16.134Z,17.24
2022-08-17T03:55:03.850Z,17.05
2022-08-17T03:57:32.553Z,17.08
2022-08-17T04:00:00.544Z,17.13
2022-08-17T04:02:33.889Z,17.09
2022-08-17T04:05:05.537Z,17.15
2022-08-17T04:07:33.115Z,17.22
2022-08-17T04:10:00.948Z,17.43
2022-08-17T04:12:43.750Z,17.39
2022-08-17T04:15:12.772Z,17.37
2022-08-17T04:17:40.732Z,17.45
2022-08-17T04:20:09.084Z,17.42
2022-08-17T04:22:36.707Z,17.55
2022-08-17T04:25:16.597Z,17.58
2022-08-17T04:27:44.391Z,17.62
2022-08-17T04:30:13.799Z,17.55
2022-08-17T04:33:06.185Z,17.55
2022-08-17T04:35:43.019Z,17.40
2022-08-17T04:38:15.521Z,17.62
2022-08-17T04:41:03.393Z,17.91
2022-08-17T04:43:34.715Z,18.09
2022-08-17T04:46:16.069Z,18.02
2022-08-17T04:48:48.188Z,17.95
2022-08-17T04:51:28.096Z,17.99
2022-08-17T04:54:12.127Z,17.95
2022-08-17T04:56:43.176Z,18.16
2022-08-17T04:59:19.069Z,18.38
2022-08-17T05:01:50.676Z,18.47
2022-08-17T05:04:33.802Z,18.49
2022-08-17T05:07:04.282Z,18.62
2022-08-17T05:09:32.236Z,18.73
2022-08-17T05:12:03.623Z,18.82
2022-08-17T05:14:33.550Z,18.89
2022-08-17T05:17:09.432Z,18.96
2022-08-17T05:19:39.260Z,18.97
2022-08-17T05:22:07.198Z,18.98
2022-08-17T05:24:42.850Z,19.05
2022-08-17T05:27:20.522Z,19.09
2022-08-17T05:29:48.103Z,19.15
2022-08-17T05:32:47.896Z,19.15
2022-08-17T05:35:05.383Z,19.17
2022-08-17T05:37:33.447Z,19.17
2022-08-17T05:40:01.147Z,19.16
2022-08-17T05:42:28.988Z,19.21
2022-08-17T05:44:58.958Z,19.27
2022-08-17T05:47:27.635Z,19.26
2022-08-17T05:49:55.669Z,19.35
2022-08-17T05:53:03.905Z,19.44
2022-08-17T05:55:56.271Z,19.55
2022-08-17T05:58:49.708Z,19.57
2022-08-17T06:01:17.578Z,19.60
2022-08-17T06:04:21.356Z,19.57
2022-08-17T06:07:05.249Z,19.61
2022-08-17T06:09:54.848Z,19.64
2022-08-17T06:12:47.140Z,19.75
2022-08-17T06:15:56.487Z,19.79
2022-08-17T06:18:31.635Z,19.98
2022-08-17T06:21:06.350Z,20.16
2022-08-17T06:23:45.174Z,20.29
2022-08-17T06:26:37.333Z,20.32
2022-08-17T06:29:25.398Z,20.51
2022-08-17T06:31:53.164Z,20.75
2022-08-17T06:34:21.789Z,21.23
2022-08-17T06:37:16.231Z,21.78
2022-08-17T06:40:07.513Z,22.23
2022-08-17T06:42:54.861Z,22.53
2022-08-17T06:45:57.611Z,22.92
2022-08-17T06:48:40.963Z,23.19
2022-08-17T06:51:39.644Z,22.99
2022-08-17T06:54:21.054Z,22.95
2022-08-17T06:57:07.034Z,23.28
2022-08-17T06:59:56.737Z,23.44
2022-08-17T07:03:15.653Z,23.22
2022-08-17T07:05:57.485Z,23.48
2022-08-17T07:09:02.852Z,23.64
2022-08-17T07:11:56.184Z,23.70
2022-08-17T07:15:08.267Z,23.74
2022-08-17T07:17:47.170Z,23.84
2022-08-17T07:20:22.656Z,24.02
2022-08-17T07:23:13.083Z,24.20
2022-08-17T07:25:41.322Z,24.33
2022-08-17T07:28:09.410Z,24.20
2022-08-17T07:30:49.258Z,24.24
2022-08-17T07:33:26.088Z,24.08
2022-08-17T07:35:56.105Z,24.62
2022-08-17T07:38:31.277Z,24.70
2022-08-17T07:41:05.320Z,24.37
2022-08-17T07:43:39.493Z,24.55
2022-08-17T07:46:54.141Z,24.57
2022-08-17T07:49:39.523Z,24.20
2022-08-17T07:52:50.357Z,24.32
2022-08-17T07:55:35.142Z,24.94
2022-08-17T07:58:03.889Z,24.86
2022-08-17T08:00:33.806Z,24.97
2022-08-17T08:03:15.688Z,25.08
2022-08-17T08:05:57.966Z,25.33
2022-08-17T08:08:31.513Z,25.44
2022-08-17T08:11:15.525Z,25.20
2022-08-17T08:13:45.958Z,25.51
2022-08-17T08:16:29.808Z,25.66
2022-08-17T08:19:03.259Z,25.48
2022-08-17T08:21:50.542Z,25.87
2022-08-17T08:25:03.262Z,26.14
2022-08-17T08:27:54.004Z,25.78
2022-08-17T08:30:23.052Z,26.10
2022-08-17T08:33:04.314Z,26.02
2022-08-17T08:35:42.671Z,26.21
2022-08-17T08:38:54.010Z,26.56
2022-08-17T08:41:32.815Z,26.71
2022-08-17T08:45:00.176Z,26.63
2022-08-17T08:47:55.410Z,26.54
2022-08-17T08:50:40.751Z,26.57
2022-08-17T08:53:43.082Z,26.73
2022-08-17T08:57:21.523Z,26.55
2022-08-17T09:00:16.814Z,26.78
2022-08-17T09:03:28.071Z,26.49
2022-08-17T09:06:33.397Z,26.50
2022-08-17T09:09:31.339Z,26.97
2022-08-17T09:12:16.925Z,27.19
2022-08-17T09:15:01.836Z,26.79
2022-08-17T09:18:28.390Z,27.16
2022-08-17T09:21:22.526Z,27.47
2022-08-17T09:24:12.839Z,27.13
2022-08-17T09:26:52.195Z,26.87
2022-08-17T09:29:25.539Z,27.31
2022-08-17T09:32:05.064Z,27.31
2022-08-17T09:34:52.852Z,28.08
2022-08-17T09:37:33.796Z,27.76
2022-08-17T09:40:20.020Z,27.72
2022-08-17T09:43:03.137Z,27.68
2022-08-17T09:45:44.710Z,27.24
2022-08-17T09:48:27.892Z,27.57
2022-08-17T09:51:16.164Z,27.62
2022-08-17T09:53:44.819Z,27.20
2022-08-17T09:56:42.314Z,27.99
2022-08-17T09:59:25.158Z,28.24
2022-08-17T10:02:34.842Z,27.11
2022-08-17T10:05:47.622Z,27.82
2022-08-17T10:08:44.306Z,27.62
2022-08-17T10:11:57.541Z,27.89
2022-08-17T10:14:58.553Z,28.10
2022-08-17T10:18:21.599Z,27.64
2022-08-17T10:21:28.064Z,27.97
2022-08-17T10:25:21.436Z,27.80
2022-08-17T10:27:54.704Z,27.55
2022-08-17T10:30:28.839Z,28.33
2022-08-17T10:33:14.599Z,28.28
2022-08-17T10:36:11.416Z,28.45
2022-08-17T10:38:49.778Z,29.09
2022-08-17T10:41:38.159Z,28.41
2022-08-17T10:44:48.457Z,28.47
2022-08-17T10:47:19.537Z,28.70
2022-08-17T10:49:54.311Z,28.03
2022-08-17T10:52:29.967Z,28.42
2022-08-17T10:55:17.907Z,28.41
2022-08-17T10:57:50.250Z,27.93
2022-08-17T11:00:25.624Z,28.17
2022-08-17T11:02:58.125Z,28.32
2022-08-17T11:05:58.943Z,28.62
2022-08-17T11:08:51.998Z,28.80
2022-08-17T11:11:49.994Z,28.47
2022-08-17T11:15:05.452Z,28.38
2022-08-17T11:17:49.840Z,27.92
2022-08-17T11:21:01.522Z,28.10
2022-08-17T11:23:59.985Z,28.11
2022-08-17T11:26:37.497Z,28.11
2022-08-17T11:29:19.642Z,28.40
2022-08-17T11:32:34.130Z,28.07
2022-08-17T11:35:22.953Z,28.61
2022-08-17T11:38:14.064Z,28.13
2022-08-17T11:41:09.065Z,28.82
2022-08-17T11:43:56.694Z,28.02
2022-08-17T11:47:19.766Z,28.33
2022-08-17T11:50:59.503Z,28.46
2022-08-17T11:53:39.297Z,28.69
2022-08-17T11:56:10.617Z,29.06
2022-08-17T11:58:45.890Z,28.04
2022-08-17T12:01:57.189Z,28.28
2022-08-17T12:04:29.259Z,28.15
2022-08-17T12:07:23.258Z,28.58
2022-08-17T12:09:53.630Z,28.62
2022-08-17T12:12:33.216Z,28.40
2022-08-17T12:15:11.485Z,28.74
2022-08-17T12:17:42.931Z,28.25
2022-08-17T12:20:34.094Z,28.88
2022-08-17T12:23:11.167Z,28.45
2022-08-17T12:26:16.637Z,28.45
2022-08-17T12:28:49.221Z,28.36
2022-08-17T12:31:28.856Z,28.64
2022-08-17T12:33:57.714Z,28.36
2022-08-17T12:36:28.886Z,28.56
2022-08-17T12:39:14.597Z,28.95
2022-08-17T12:41:54.154Z,29.09
2022-08-17T12:44:34.981Z,28.86
2022-08-17T12:47:22.742Z,28.83
2022-08-17T12:50:05.795Z,29.06
2022-08-17T12:52:38.857Z,28.20
2022-08-17T12:55:13.655Z,28.46
2022-08-17T12:57:58.513Z,28.30
2022-08-17T13:00:34.856Z,28.58
2022-08-17T13:03:07.863Z,28.36
2022-08-17T13:05:37.486Z,28.19
2022-08-17T13:08:18.774Z,28.64
2022-08-17T13:11:05.228Z,28.89
2022-08-17T13:13:37.516Z,28.80
2022-08-17T13:16:28.814Z,28.61
2022-08-17T13:19:39.850Z,28.63
2022-08-17T13:22:12.887Z,28.43
2022-08-17T13:25:08.508Z,28.45
2022-08-17T13:27:36.300Z,28.52
2022-08-17T13:30:12.534Z,28.81
2022-08-17T13:32:47.270Z,28.53
2022-08-17T13:35:39.407Z,27.70
2022-08-17T13:38:49.686Z,27.64
2022-08-17T13:41:37.965Z,27.95
2022-08-17T13:44:40.489Z,28.09
2022-08-17T13:47:20.496Z,27.84
2022-08-17T13:49:49.530Z,27.90
2022-08-17T13:52:43.526Z,27.83
2022-08-17T13:55:22.844Z,28.11
2022-08-17T13:58:06.482Z,28.10
2022-08-17T14:00:36.869Z,27.77
2022-08-17T14:03:06.488Z,27.65
2022-08-17T14:05:38.084Z,27.68
2022-08-17T14:08:07.205Z,27.86
2022-08-17T14:10:36.669Z,27.69
2022-08-17T14:13:06.216Z,27.63
2022-08-17T14:15:55.004Z,27.40
2022-08-17T14:18:35.662Z,27.25
2022-08-17T14:21:13.764Z,28.21
2022-08-17T14:23:48.950Z,28.19
2022-08-17T14:26:23.395Z,27.57
2022-08-17T14:28:56.197Z,27.94
2022-08-17T14:31:27.762Z,27.57
2022-08-17T14:33:55.968Z,27.63
2022-08-17T14:36:23.896Z,27.77
2022-08-17T14:38:51.966Z,27.48
2022-08-17T14:41:22.274Z,27.93
2022-08-17T14:43:53.682Z,27.86
2022-08-17T14:46:21.701Z,27.63
2022-08-17T14:48:57.189Z,27.68
2022-08-17T14:51:29.467Z,27.61
2022-08-17T14:53:57.492Z,27.11
2022-08-17T14:56:26.013Z,27.92
2022-08-17T14:58:54.479Z,27.57
2022-08-17T15:01:25.068Z,27.23
2022-08-17T15:03:54.404Z,26.91
2022-08-17T15:06:24.805Z,26.87
2022-08-17T15:08:54.504Z,26.57
2022-08-17T15:11:22.791Z,26.88
2022-08-17T15:13:52.958Z,26.82
2022-08-17T15:16:21.827Z,27.24
2022-08-17T15:18:51.352Z,27.08
2022-08-17T15:21:20.299Z,26.88
2022-08-17T15:23:48.242Z,26.97
2022-08-17T15:26:16.982Z,27.14
2022-08-17T15:28:44.819Z,26.63
2022-08-17T15:31:31.617Z,26.99
2022-08-17T15:34:00.388Z,26.95
2022-08-17T15:36:28.460Z,26.95
2022-08-17T15:38:56.442Z,26.52
2022-08-17T15:41:25.709Z,26.76
2022-08-17T15:43:55.536Z,26.67
2022-08-17T15:46:26.109Z,26.61
2022-08-17T15:49:00.071Z,26.76
2022-08-17T15:51:35.596Z,27.17
2022-08-17T15:54:19.280Z,26.90
2022-08-17T15:56:51.608Z,26.67
2022-08-17T15:59:19.612Z,26.67
2022-08-17T16:03:14.330Z,26.76
2022-08-17T16:04:38.059Z,26.85
2022-08-17T16:07:12.087Z,26.28
2022-08-17T16:09:40.786Z,26.22
2022-08-17T16:12:14.933Z,26.46
2022-08-17T16:14:48.956Z,26.30
2022-08-17T16:17:38.762Z,26.07
2022-08-17T16:20:06.651Z,26.04
2022-08-17T16:22:46.591Z,26.05
2022-08-17T16:25:20.679Z,25.93
2022-08-17T16:27:53.456Z,25.89
2022-08-17T16:30:26.294Z,25.67
2022-08-17T16:32:56.744Z,25.55
2022-08-17T16:35:27.078Z,25.62
2022-08-17T16:37:58.980Z,25.47
2022-08-17T16:40:29.651Z,25.45
2022-08-17T16:43:01.534Z,25.28
2022-08-17T16:45:36.792Z,25.11
2022-08-17T16:48:05.275Z,25.31
2022-08-17T16:50:36.999Z,24.97
2022-08-17T16:53:18.016Z,24.93
2022-08-17T16:55:53.203Z,25.07
2022-08-17T16:58:24.152Z,25.09
2022-08-17T17:00:52.393Z,24.99
2022-08-17T17:03:29.332Z,24.84
2022-08-17T17:06:18.603Z,24.76
2022-08-17T17:09:17.641Z,24.82
2022-08-17T17:11:59.645Z,24.52
2022-08-17T17:14:45.280Z,24.60
2022-08-17T17:17:30.694Z,24.44
2022-08-17T17:20:14.175Z,24.49
2022-08-17T17:23:24.530Z,24.56
2022-08-17T17:26:27.513Z,24.34
2022-08-17T17:29:19.414Z,24.51
2022-08-17T17:32:29.242Z,24.35
2022-08-17T17:35:11.585Z,24.24
2022-08-17T17:37:43.622Z,24.12
2022-08-17T17:40:38.293Z,24.19
2022-08-17T17:43:36.878Z,24.12
2022-08-17T17:46:29.270Z,24.04
2022-08-17T17:49:06.320Z,23.86
2022-08-17T17:52:19.010Z,23.88
2022-08-17T17:55:25.381Z,23.81
2022-08-17T17:58:42.833Z,23.66
2022-08-17T18:01:47.073Z,23.58
2022-08-17T18:04:31.486Z,23.35
2022-08-17T18:07:32.663Z,23.43
2022-08-17T18:10:29.371Z,23.29
2022-08-17T18:13:56.913Z,23.12
2022-08-17T18:16:32.051Z,22.96
2022-08-17T18:19:01.436Z,22.77
2022-08-17T18:21:46.177Z,22.66
2022-08-17T18:24:36.363Z,22.54
2022-08-17T18:27:51.018Z,22.59
2022-08-17T18:30:19.595Z,22.70
2022-08-17T18:32:47.962Z,22.59
2022-08-17T18:35:18.756Z,22.51
2022-08-17T18:38:21.641Z,22.31
2022-08-17T18:41:25.543Z,21.95
2022-08-17T18:44:23.711Z,22.12
2022-08-17T18:47:08.431Z,21.97
2022-08-17T18:49:36.493Z,21.77
2022-08-17T18:52:11.103Z,21.97
2022-08-17T18:54:39.053Z,21.89
2022-08-17T18:57:12.646Z,21.92
2022-08-17T18:59:48.487Z,21.84
2022-08-17T19:02:45.652Z,21.97
2022-08-17T19:05:47.014Z,21.78
2022-08-17T19:08:31.059Z,21.88
2022-08-17T19:11:09.785Z,21.83
2022-08-17T19:13:53.893Z,21.74
2022-08-17T19:16:40.645Z,21.77
2022-08-17T19:19:27.160Z,21.66
2022-08-17T19:22:27.784Z,21.73
2022-08-17T19:25:18.499Z,21.48
2022-08-17T19:28:03.570Z,21.58
2022-08-17T19:30:37.263Z,21.40
2022-08-17T19:33:10.958Z,21.43
2022-08-17T19:36:23.060Z,21.44
2022-08-17T19:39:52.771Z,21.28
2022-08-17T19:43:01.247Z,21.36
2022-08-17T19:46:15.167Z,21.27
2022-08-17T19:49:15.194Z,21.36
2022-08-17T19:51:53.398Z,21.52
2022-08-17T19:54:47.501Z,21.50
2022-08-17T19:57:48.494Z,21.07
2022-08-17T20:00:19.780Z,20.98
2022-08-17T20:02:58.192Z,20.97
2022-08-17T20:05:31.109Z,20.70
2022-08-17T20:08:17.813Z,20.92
2022-08-17T20:11:21.389Z,20.76
2022-08-17T20:14:12.470Z,20.67
2022-08-17T20:16:41.748Z,20.52
2022-08-17T20:19:56.217Z,20.60
2022-08-17T20:22:49.794Z,20.82
2022-08-17T20:26:10.308Z,20.71
2022-08-17T20:28:59.859Z,20.70
2022-08-17T20:32:06.846Z,20.68
2022-08-17T20:34:39.899Z,20.73
2022-08-17T20:37:24.983Z,20.55
2022-08-17T20:39:53.013Z,20.55
2022-08-17T20:42:21.281Z,20.37
2022-08-17T20:44:59.697Z,20.49
2022-08-17T20:48:16.000Z,20.62
2022-08-17T20:50:52.976Z,20.53
2022-08-17T20:53:55.052Z,20.49
2022-08-17T20:56:44.831Z,20.41
2022-08-17T20:59:24.339Z,20.60
2022-08-17T21:02:17.716Z,20.49
2022-08-17T21:04:51.503Z,20.32
2022-08-17T21:07:41.144Z,20.48
2022-08-17T21:10:25.683Z,20.53
2022-08-17T21:13:15.337Z,20.56
2022-08-17T21:16:26.259Z,20.28
2022-08-17T21:19:12.006Z,20.49
2022-08-17T21:22:26.443Z,20.50
2022-08-17T21:25:32.639Z,20.59
2022-08-17T21:28:19.810Z,20.54
2022-08-17T21:31:09.200Z,20.48
2022-08-17T21:33:39.991Z,20.37
2022-08-17T21:36:13.516Z,20.54
2022-08-17T21:38:57.025Z,20.52
2022-08-17T21:41:46.640Z,20.38
2022-08-17T21:44:35.057Z,20.37
2022-08-17T21:47:20.820Z,20.49
2022-08-17T21:49:49.175Z,20.55
2022-08-17T21:52:21.233Z,20.46
2022-08-17T21:54:58.666Z,20.26
2022-08-17T21:57:30.220Z,20.36
2022-08-17T22:00:02.956Z,20.18
2022-08-17T22:02:41.900Z,20.48
2022-08-17T22:05:14.634Z,20.26
2022-08-17T22:07:58.783Z,20.30
2022-08-17T22:10:43.689Z,20.19
2022-08-17T22:13:30.294Z,20.21
2022-08-17T22:16:29.270Z,20.38
2022-08-17T22:18:59.864Z,20.54
2022-08-17T22:21:30.482Z,20.56
2022-08-17T22:24:21.960Z,20.34
2022-08-17T22:27:11.977Z,20.14
2022-08-17T22:29:59.302Z,20.41
2022-08-17T22:32:46.615Z,20.08
2022-08-17T22:35:29.301Z,20.21
2022-08-17T22:37:57.836Z,20.22
2022-08-17T22:40:32.580Z,20.20
2022-08-17T22:43:03.630Z,20.11
2022-08-17T22:45:33.704Z,20.13
2022-08-17T22:48:02.295Z,20.41
2022-08-17T22:50:33.399Z,20.27
2022-08-17T22:53:37.186Z,20.17
2022-08-17T22:56:25.990Z,20.17
2022-08-17T22:59:17.057Z,19.69
2022-08-17T23:02:14.215Z,19.93
2022-08-17T23:04:47.876Z,19.95
2022-08-17T23:07:17.535Z,19.98
2022-08-17T23:09:46.374Z,20.10
2022-08-17T23:12:22.618Z,19.88
2022-08-17T23:15:01.649Z,19.95
2022-08-17T23:17:37.225Z,20.11
2022-08-17T23:20:09.421Z,20.06
2022-08-17T23:22:51.431Z,19.81
2022-08-17T23:25:33.923Z,19.53
2022-08-17T23:28:05.334Z,19.61
2022-08-17T23:30:44.229Z,19.47
2022-08-17T23:33:29.960Z,19.59
2022-08-17T23:35:58.938Z,19.93
2022-08-17T23:38:28.215Z,19.88
2022-08-17T23:41:02.800Z,19.78
2022-08-17T23:43:31.787Z,19.94
2022-08-17T23:46:03.794Z,19.75
2022-08-17T23:48:36.540Z,19.81
2022-08-17T23:51:36.129Z,19.85
2022-08-17T23:54:13.585Z,19.81
2022-08-17T23:56:47.336Z,19.79
2022-08-17T23:59:18.660Z,19.76
